sensor_id;sensor_type;location;lat;lon;timestamp;pressure;altitude;pressure_sealevel;temperature;humidity
7407;BME280;3745;56.964;24.128;2023-05-13T00:01:14;102618.38;;;13.46;100.00
7407;BME280;3745;56.964;24.128;2023-05-13T00:03:40;102625.91;;;13.43;100.00
7407;BME280;3745;56.964;24.128;2023-05-13T00:06:06;102619.63;;;13.32;100.00
7407;BME280;3745;56.964;24.128;2023-05-13T00:08:32;102631.25;;;13.24;100.00
7407;BME280;3745;56.964;24.128;2023-05-13T00:10:57;102621.88;;;13.23;100.00
7407;BME280;3745;56.964;24.128;2023-05-13T00:13:23;102605.19;;;13.06;100.00
7407;BME280;3745;56.964;24.128;2023-05-13T00:15:49;102632.88;;;13.22;100.00
7407;BME280;3745;56.964;24.128;2023-05-13T00:18:14;102598.38;;;13.05;100.00
7407;BME280;3745;56.964;24.128;2023-05-13T00:20:40;102621.06;;;13.24;100.00
7407;BME280;3745;56.964;24.128;2023-05-13T00:23:06;102596.47;;;12.98;100.00
7407;BME280;3745;56.964;24.128;2023-05-13T00:25:32;102626.56;;;13.11;100.00
7407;BME280;3745;56.964;24.128;2023-05-13T00:27:58;102601.56;;;12.98;100.00
7407;BME280;3745;56.964;24.128;2023-05-13T00:30:24;102634.19;;;13.11;100.00
7407;BME280;3745;56.964;24.128;2023-05-13T00:32:49;102616.59;;;12.92;100.00
7407;BME280;3745;56.964;24.128;2023-05-13T00:35:16;102633.66;;;12.96;100.00
7407;BME280;3745;56.964;24.128;2023-05-13T00:37:42;102621.31;;;12.81;100.00
7407;BME280;3745;56.964;24.128;2023-05-13T00:40:18;102594.25;;;12.58;100.00
7407;BME280;3745;56.964;24.128;2023-05-13T00:42:44;102569.22;;;12.43;100.00
7407;BME280;3745;56.964;24.128;2023-05-13T00:45:10;102638.22;;;12.81;100.00
7407;BME280;3745;56.964;24.128;2023-05-13T00:47:35;102641.69;;;12.83;100.00
7407;BME280;3745;56.964;24.128;2023-05-13T00:50:01;102640.06;;;12.85;100.00
7407;BME280;3745;56.964;24.128;2023-05-13T00:52:28;102636.59;;;12.83;100.00
7407;BME280;3745;56.964;24.128;2023-05-13T00:54:53;102643.09;;;12.75;100.00
7407;BME280;3745;56.964;24.128;2023-05-13T00:57:19;102641.16;;;12.68;100.00
7407;BME280;3745;56.964;24.128;2023-05-13T00:59:45;102644.31;;;12.61;100.00
7407;BME280;3745;56.964;24.128;2023-05-13T01:02:18;102642.69;;;12.63;100.00
7407;BME280;3745;56.964;24.128;2023-05-13T01:07:45;102646.03;;;12.62;100.00
7407;BME280;3745;56.964;24.128;2023-05-13T01:10:23;102630.44;;;12.51;100.00
7407;BME280;3745;56.964;24.128;2023-05-13T01:12:55;102602.63;;;12.30;100.00
7407;BME280;3745;56.964;24.128;2023-05-13T01:15:24;102590.19;;;12.14;100.00
7407;BME280;3745;56.964;24.128;2023-05-13T01:17:56;102647.25;;;12.47;100.00
7407;BME280;3745;56.964;24.128;2023-05-13T01:20:26;102648.97;;;12.48;100.00
7407;BME280;3745;56.964;24.128;2023-05-13T01:22:51;102645.06;;;12.34;100.00
7407;BME280;3745;56.964;24.128;2023-05-13T01:25:17;102615.78;;;12.20;100.00
7407;BME280;3745;56.964;24.128;2023-05-13T01:27:43;102613.19;;;12.19;100.00
7407;BME280;3745;56.964;24.128;2023-05-13T01:30:09;102652.00;;;12.38;100.00
7407;BME280;3745;56.964;24.128;2023-05-13T01:32:36;102636.31;;;12.26;100.00
7407;BME280;3745;56.964;24.128;2023-05-13T01:35:03;102637.91;;;12.24;100.00
7407;BME280;3745;56.964;24.128;2023-05-13T01:37:30;102655.22;;;12.34;100.00
7407;BME280;3745;56.964;24.128;2023-05-13T01:39:55;102652.44;;;12.27;100.00
7407;BME280;3745;56.964;24.128;2023-05-13T01:42:25;102654.31;;;12.32;100.00
7407;BME280;3745;56.964;24.128;2023-05-13T01:44:51;102643.00;;;12.24;100.00
7407;BME280;3745;56.964;24.128;2023-05-13T01:47:16;102642.88;;;12.21;100.00
7407;BME280;3745;56.964;24.128;2023-05-13T01:49:42;102649.81;;;12.25;100.00
7407;BME280;3745;56.964;24.128;2023-05-13T01:52:07;102647.97;;;12.21;100.00
7407;BME280;3745;56.964;24.128;2023-05-13T01:54:33;102606.25;;;11.91;100.00
7407;BME280;3745;56.964;24.128;2023-05-13T01:56:59;102652.88;;;12.17;100.00
7407;BME280;3745;56.964;24.128;2023-05-13T01:59:24;102635.44;;;12.02;100.00
7407;BME280;3745;56.964;24.128;2023-05-13T02:01:50;102655.22;;;12.11;100.00
7407;BME280;3745;56.964;24.128;2023-05-13T02:04:16;102607.13;;;11.91;100.00
7407;BME280;3745;56.964;24.128;2023-05-13T02:06:41;102652.13;;;12.19;100.00
7407;BME280;3745;56.964;24.128;2023-05-13T02:09:07;102654.78;;;12.22;100.00
7407;BME280;3745;56.964;24.128;2023-05-13T02:11:32;102613.16;;;11.95;100.00
7407;BME280;3745;56.964;24.128;2023-05-13T02:14:00;102657.78;;;12.12;100.00
7407;BME280;3745;56.964;24.128;2023-05-13T02:16:25;102642.22;;;12.03;100.00
7407;BME280;3745;56.964;24.128;2023-05-13T02:18:51;102653.34;;;12.07;100.00
7407;BME280;3745;56.964;24.128;2023-05-13T02:21:16;102655.97;;;12.08;100.00
7407;BME280;3745;56.964;24.128;2023-05-13T02:23:42;102664.25;;;12.04;100.00
7407;BME280;3745;56.964;24.128;2023-05-13T02:26:07;102658.84;;;11.95;100.00
7407;BME280;3745;56.964;24.128;2023-05-13T02:28:33;102665.78;;;11.99;100.00
7407;BME280;3745;56.964;24.128;2023-05-13T02:30:58;102679.16;;;11.95;100.00
7407;BME280;3745;56.964;24.128;2023-05-13T02:33:24;102637.75;;;11.74;100.00
7407;BME280;3745;56.964;24.128;2023-05-13T02:35:50;102677.63;;;12.00;100.00
7407;BME280;3745;56.964;24.128;2023-05-13T02:38:15;102649.50;;;11.72;100.00
7407;BME280;3745;56.964;24.128;2023-05-13T02:40:41;102684.09;;;11.92;100.00
7407;BME280;3745;56.964;24.128;2023-05-13T02:43:07;102685.84;;;11.93;100.00
7407;BME280;3745;56.964;24.128;2023-05-13T02:45:32;102683.34;;;11.94;100.00
7407;BME280;3745;56.964;24.128;2023-05-13T02:47:58;102673.88;;;11.90;100.00
7407;BME280;3745;56.964;24.128;2023-05-13T02:50:23;102672.31;;;11.94;100.00
7407;BME280;3745;56.964;24.128;2023-05-13T02:52:49;102669.09;;;11.98;100.00
7407;BME280;3745;56.964;24.128;2023-05-13T02:55:14;102657.50;;;11.82;100.00
7407;BME280;3745;56.964;24.128;2023-05-13T02:57:42;102651.69;;;11.85;100.00
7407;BME280;3745;56.964;24.128;2023-05-13T03:00:08;102683.59;;;12.01;100.00
7407;BME280;3745;56.964;24.128;2023-05-13T03:02:34;102687.78;;;12.00;100.00
7407;BME280;3745;56.964;24.128;2023-05-13T03:05:00;102661.19;;;11.90;100.00
7407;BME280;3745;56.964;24.128;2023-05-13T03:07:25;102683.06;;;12.09;100.00
7407;BME280;3745;56.964;24.128;2023-05-13T03:09:51;102689.88;;;12.10;100.00
7407;BME280;3745;56.964;24.128;2023-05-13T03:12:17;102674.19;;;11.98;100.00
7407;BME280;3745;56.964;24.128;2023-05-13T03:14:42;102670.75;;;11.96;100.00
7407;BME280;3745;56.964;24.128;2023-05-13T03:17:09;102693.44;;;12.15;100.00
7407;BME280;3745;56.964;24.128;2023-05-13T03:19:36;102678.84;;;12.10;100.00
7407;BME280;3745;56.964;24.128;2023-05-13T03:22:03;102687.00;;;12.23;100.00
7407;BME280;3745;56.964;24.128;2023-05-13T03:24:28;102695.50;;;12.25;100.00
7407;BME280;3745;56.964;24.128;2023-05-13T03:26:55;102673.13;;;12.15;100.00
7407;BME280;3745;56.964;24.128;2023-05-13T03:29:20;102674.63;;;12.10;100.00
7407;BME280;3745;56.964;24.128;2023-05-13T03:31:46;102692.41;;;12.32;100.00
7407;BME280;3745;56.964;24.128;2023-05-13T03:34:12;102693.09;;;12.28;100.00
7407;BME280;3745;56.964;24.128;2023-05-13T03:36:37;102683.81;;;12.29;100.00
7407;BME280;3745;56.964;24.128;2023-05-13T03:39:03;102658.38;;;12.05;100.00
7407;BME280;3745;56.964;24.128;2023-05-13T03:41:29;102704.06;;;12.27;100.00
7407;BME280;3745;56.964;24.128;2023-05-13T03:43:54;102701.38;;;12.24;100.00
7407;BME280;3745;56.964;24.128;2023-05-13T03:46:20;102692.72;;;12.18;100.00
7407;BME280;3745;56.964;24.128;2023-05-13T03:48:46;102685.13;;;12.19;100.00
7407;BME280;3745;56.964;24.128;2023-05-13T03:51:12;102699.22;;;12.33;100.00
7407;BME280;3745;56.964;24.128;2023-05-13T03:53:37;102683.25;;;12.37;100.00
7407;BME280;3745;56.964;24.128;2023-05-13T03:56:03;102686.13;;;12.46;100.00
7407;BME280;3745;56.964;24.128;2023-05-13T03:58:29;102691.66;;;12.59;100.00
7407;BME280;3745;56.964;24.128;2023-05-13T04:00:55;102697.06;;;12.68;100.00
7407;BME280;3745;56.964;24.128;2023-05-13T04:03:21;102676.63;;;12.65;100.00
7407;BME280;3745;56.964;24.128;2023-05-13T04:05:47;102689.97;;;12.83;100.00
7407;BME280;3745;56.964;24.128;2023-05-13T04:08:13;102698.75;;;12.92;100.00
7407;BME280;3745;56.964;24.128;2023-05-13T04:10:39;102704.16;;;13.01;100.00
7407;BME280;3745;56.964;24.128;2023-05-13T04:13:06;102700.06;;;13.05;100.00
7407;BME280;3745;56.964;24.128;2023-05-13T04:15:32;102663.97;;;12.90;100.00
7407;BME280;3745;56.964;24.128;2023-05-13T04:17:58;102655.84;;;13.00;100.00
7407;BME280;3745;56.964;24.128;2023-05-13T04:20:23;102704.28;;;13.28;100.00
7407;BME280;3745;56.964;24.128;2023-05-13T04:22:49;102694.97;;;13.29;100.00
7407;BME280;3745;56.964;24.128;2023-05-13T04:25:15;102697.84;;;13.39;100.00
7407;BME280;3745;56.964;24.128;2023-05-13T04:27:41;102699.88;;;13.49;100.00
7407;BME280;3745;56.964;24.128;2023-05-13T04:30:07;102705.34;;;13.62;100.00
7407;BME280;3745;56.964;24.128;2023-05-13T04:32:33;102697.28;;;13.75;100.00
7407;BME280;3745;56.964;24.128;2023-05-13T04:34:59;102675.38;;;13.80;100.00
7407;BME280;3745;56.964;24.128;2023-05-13T04:37:25;102683.34;;;13.90;100.00
7407;BME280;3745;56.964;24.128;2023-05-13T04:39:50;102696.63;;;14.08;100.00
7407;BME280;3745;56.964;24.128;2023-05-13T04:42:16;102695.88;;;14.12;100.00
7407;BME280;3745;56.964;24.128;2023-05-13T04:44:42;102683.47;;;14.23;100.00
7407;BME280;3745;56.964;24.128;2023-05-13T04:47:08;102697.41;;;14.34;100.00
7407;BME280;3745;56.964;24.128;2023-05-13T04:49:34;102705.38;;;14.46;100.00
7407;BME280;3745;56.964;24.128;2023-05-13T04:52:00;102684.44;;;14.56;100.00
7407;BME280;3745;56.964;24.128;2023-05-13T04:54:26;102698.47;;;14.74;100.00
7407;BME280;3745;56.964;24.128;2023-05-13T04:56:52;102689.22;;;14.76;100.00
7407;BME280;3745;56.964;24.128;2023-05-13T04:59:17;102691.91;;;14.82;100.00
7407;BME280;3745;56.964;24.128;2023-05-13T05:01:43;102684.66;;;14.97;100.00
7407;BME280;3745;56.964;24.128;2023-05-13T05:04:09;102687.53;;;15.09;100.00
7407;BME280;3745;56.964;24.128;2023-05-13T05:06:35;102681.00;;;15.20;100.00
7407;BME280;3745;56.964;24.128;2023-05-13T05:09:01;102666.53;;;15.19;100.00
7407;BME280;3745;56.964;24.128;2023-05-13T05:11:26;102712.31;;;15.47;100.00
7407;BME280;3745;56.964;24.128;2023-05-13T05:13:52;102681.69;;;15.47;100.00
7407;BME280;3745;56.964;24.128;2023-05-13T05:16:17;102711.25;;;15.73;100.00
7407;BME280;3745;56.964;24.128;2023-05-13T05:18:43;102708.78;;;15.78;100.00
7407;BME280;3745;56.964;24.128;2023-05-13T05:21:09;102698.00;;;15.90;100.00
7407;BME280;3745;56.964;24.128;2023-05-13T05:23:35;102718.66;;;16.00;100.00
7407;BME280;3745;56.964;24.128;2023-05-13T05:26:01;102710.56;;;16.19;100.00
7407;BME280;3745;56.964;24.128;2023-05-13T05:28:28;102685.94;;;16.24;100.00
7407;BME280;3745;56.964;24.128;2023-05-13T05:30:54;102702.63;;;16.49;100.00
7407;BME280;3745;56.964;24.128;2023-05-13T05:33:20;102709.00;;;16.68;100.00
7407;BME280;3745;56.964;24.128;2023-05-13T05:35:46;102709.34;;;16.85;100.00
7407;BME280;3745;56.964;24.128;2023-05-13T05:38:12;102700.91;;;16.90;100.00
7407;BME280;3745;56.964;24.128;2023-05-13T05:40:42;102714.97;;;17.13;100.00
7407;BME280;3745;56.964;24.128;2023-05-13T05:43:09;102714.25;;;17.22;98.77
7407;BME280;3745;56.964;24.128;2023-05-13T05:45:38;102710.22;;;17.34;99.43
7407;BME280;3745;56.964;24.128;2023-05-13T05:48:04;102695.72;;;17.38;97.20
7407;BME280;3745;56.964;24.128;2023-05-13T05:50:31;102709.81;;;17.61;97.22
7407;BME280;3745;56.964;24.128;2023-05-13T05:52:57;102684.09;;;17.55;94.72
7407;BME280;3745;56.964;24.128;2023-05-13T05:55:24;102694.63;;;17.73;92.32
7407;BME280;3745;56.964;24.128;2023-05-13T05:57:51;102715.56;;;18.07;89.95
7407;BME280;3745;56.964;24.128;2023-05-13T06:00:17;102714.78;;;18.12;88.01
7407;BME280;3745;56.964;24.128;2023-05-13T06:02:43;102691.72;;;18.11;86.81
7407;BME280;3745;56.964;24.128;2023-05-13T06:05:09;102709.16;;;18.39;86.21
7407;BME280;3745;56.964;24.128;2023-05-13T06:07:34;102689.41;;;18.33;81.22
7407;BME280;3745;56.964;24.128;2023-05-13T06:10:00;102712.94;;;18.68;82.67
7407;BME280;3745;56.964;24.128;2023-05-13T06:12:25;102706.22;;;18.79;78.39
7407;BME280;3745;56.964;24.128;2023-05-13T06:14:51;102702.84;;;18.86;77.93
7407;BME280;3745;56.964;24.128;2023-05-13T06:17:17;102690.91;;;18.88;79.33
7407;BME280;3745;56.964;24.128;2023-05-13T06:19:43;102708.09;;;18.99;78.88
7407;BME280;3745;56.964;24.128;2023-05-13T06:22:09;102674.75;;;18.97;78.16
7407;BME280;3745;56.964;24.128;2023-05-13T06:24:35;102698.88;;;19.19;74.65
7407;BME280;3745;56.964;24.128;2023-05-13T06:27:01;102699.84;;;19.33;74.34
7407;BME280;3745;56.964;24.128;2023-05-13T06:29:27;102708.59;;;19.53;72.27
7407;BME280;3745;56.964;24.128;2023-05-13T06:31:53;102653.63;;;19.33;71.43
7407;BME280;3745;56.964;24.128;2023-05-13T06:34:19;102710.47;;;19.78;68.38
7407;BME280;3745;56.964;24.128;2023-05-13T06:36:44;102682.97;;;19.64;68.56
7407;BME280;3745;56.964;24.128;2023-05-13T06:39:11;102692.50;;;19.83;65.48
7407;BME280;3745;56.964;24.128;2023-05-13T06:41:40;102704.66;;;20.11;65.31
7407;BME280;3745;56.964;24.128;2023-05-13T06:44:06;102708.94;;;20.14;62.81
7407;BME280;3745;56.964;24.128;2023-05-13T06:46:32;102698.59;;;19.98;64.80
7407;BME280;3745;56.964;24.128;2023-05-13T06:48:58;102673.69;;;19.84;64.19
7407;BME280;3745;56.964;24.128;2023-05-13T06:51:24;102703.78;;;20.08;63.82
7407;BME280;3745;56.964;24.128;2023-05-13T06:53:52;102699.53;;;20.17;61.03
7407;BME280;3745;56.964;24.128;2023-05-13T06:56:19;102702.19;;;20.31;60.80
7407;BME280;3745;56.964;24.128;2023-05-13T06:58:47;102712.53;;;20.49;60.23
7407;BME280;3745;56.964;24.128;2023-05-13T07:01:14;102713.44;;;20.65;57.45
7407;BME280;3745;56.964;24.128;2023-05-13T07:03:41;102674.81;;;20.48;56.68
7407;BME280;3745;56.964;24.128;2023-05-13T07:06:06;102712.63;;;20.79;56.55
7407;BME280;3745;56.964;24.128;2023-05-13T07:08:32;102682.56;;;20.62;56.85
7407;BME280;3745;56.964;24.128;2023-05-13T07:10:57;102671.38;;;20.58;55.53
7407;BME280;3745;56.964;24.128;2023-05-13T07:13:23;102704.91;;;20.82;56.35
7407;BME280;3745;56.964;24.128;2023-05-13T07:15:49;102703.22;;;21.04;56.39
7407;BME280;3745;56.964;24.128;2023-05-13T07:18:20;102674.00;;;20.81;54.00
7407;BME280;3745;56.964;24.128;2023-05-13T07:20:46;102692.88;;;20.74;53.58
7407;BME280;3745;56.964;24.128;2023-05-13T07:23:11;102697.22;;;20.91;54.22
7407;BME280;3745;56.964;24.128;2023-05-13T07:25:37;102700.69;;;21.12;52.98
7407;BME280;3745;56.964;24.128;2023-05-13T07:28:03;102694.63;;;21.05;51.03
7407;BME280;3745;56.964;24.128;2023-05-13T07:30:28;102676.63;;;21.06;51.95
7407;BME280;3745;56.964;24.128;2023-05-13T07:32:54;102704.13;;;21.35;50.92
7407;BME280;3745;56.964;24.128;2023-05-13T07:35:20;102700.66;;;21.48;49.99
7407;BME280;3745;56.964;24.128;2023-05-13T07:37:45;102686.91;;;21.55;50.55
7407;BME280;3745;56.964;24.128;2023-05-13T07:40:11;102664.56;;;21.51;52.50
7407;BME280;3745;56.964;24.128;2023-05-13T07:42:38;102674.84;;;21.66;51.94
7407;BME280;3745;56.964;24.128;2023-05-13T07:45:05;102698.00;;;21.86;51.86
7407;BME280;3745;56.964;24.128;2023-05-13T07:47:31;102695.44;;;21.99;51.89
7407;BME280;3745;56.964;24.128;2023-05-13T07:49:58;102700.59;;;21.96;50.90
7407;BME280;3745;56.964;24.128;2023-05-13T07:52:24;102686.84;;;21.94;50.10
7407;BME280;3745;56.964;24.128;2023-05-13T07:54:50;102694.56;;;22.02;51.06
7407;BME280;3745;56.964;24.128;2023-05-13T07:57:15;102686.78;;;22.11;49.51
7407;BME280;3745;56.964;24.128;2023-05-13T07:59:41;102693.59;;;22.23;48.99
7407;BME280;3745;56.964;24.128;2023-05-13T08:02:06;102674.69;;;22.24;48.75
7407;BME280;3745;56.964;24.128;2023-05-13T08:04:33;102691.88;;;22.25;47.11
7407;BME280;3745;56.964;24.128;2023-05-13T08:07:00;102693.63;;;22.20;46.55
7407;BME280;3745;56.964;24.128;2023-05-13T08:09:26;102664.47;;;21.90;45.74
7407;BME280;3745;56.964;24.128;2023-05-13T08:11:52;102688.53;;;22.04;46.21
7407;BME280;3745;56.964;24.128;2023-05-13T08:14:19;102660.22;;;21.89;45.11
7407;BME280;3745;56.964;24.128;2023-05-13T08:16:45;102685.03;;;22.18;45.45
7407;BME280;3745;56.964;24.128;2023-05-13T08:19:12;102674.72;;;22.14;43.41
7407;BME280;3745;56.964;24.128;2023-05-13T08:21:38;102688.44;;;22.21;42.66
7407;BME280;3745;56.964;24.128;2023-05-13T08:24:04;102664.44;;;22.08;43.12
7407;BME280;3745;56.964;24.128;2023-05-13T08:26:30;102682.41;;;22.22;43.05
7407;BME280;3745;56.964;24.128;2023-05-13T08:28:58;102683.19;;;22.38;41.96
7407;BME280;3745;56.964;24.128;2023-05-13T08:31:24;102657.38;;;22.41;41.33
7407;BME280;3745;56.964;24.128;2023-05-13T08:33:52;102662.53;;;22.41;40.34
7407;BME280;3745;56.964;24.128;2023-05-13T08:36:19;102652.31;;;22.23;40.62
7407;BME280;3745;56.964;24.128;2023-05-13T08:38:47;102671.19;;;22.31;40.64
7407;BME280;3745;56.964;24.128;2023-05-13T08:41:13;102663.50;;;22.19;41.06
7407;BME280;3745;56.964;24.128;2023-05-13T08:43:39;102678.88;;;22.44;41.72
7407;BME280;3745;56.964;24.128;2023-05-13T08:46:09;102669.38;;;22.51;40.30
7407;BME280;3745;56.964;24.128;2023-05-13T08:48:37;102661.53;;;22.63;41.00
7407;BME280;3745;56.964;24.128;2023-05-13T08:51:03;102673.44;;;22.87;41.36
7407;BME280;3745;56.964;24.128;2023-05-13T08:53:29;102651.19;;;22.71;42.34
7407;BME280;3745;56.964;24.128;2023-05-13T08:55:56;102670.84;;;22.91;41.83
7407;BME280;3745;56.964;24.128;2023-05-13T08:58:23;102670.81;;;22.94;43.96
7407;BME280;3745;56.964;24.128;2023-05-13T09:00:49;102664.00;;;22.84;44.67
7407;BME280;3745;56.964;24.128;2023-05-13T09:03:18;102669.16;;;22.84;44.44
7407;BME280;3745;56.964;24.128;2023-05-13T09:05:43;102648.59;;;22.72;46.33
7407;BME280;3745;56.964;24.128;2023-05-13T09:08:09;102660.63;;;22.76;46.51
7407;BME280;3745;56.964;24.128;2023-05-13T09:10:38;102667.56;;;22.70;46.36
7407;BME280;3745;56.964;24.128;2023-05-13T09:13:04;102662.34;;;22.74;46.76
7407;BME280;3745;56.964;24.128;2023-05-13T09:15:32;102664.78;;;22.94;47.93
7407;BME280;3745;56.964;24.128;2023-05-13T09:18:02;102667.41;;;22.89;45.95
7407;BME280;3745;56.964;24.128;2023-05-13T09:20:29;102663.06;;;22.93;46.01
7407;BME280;3745;56.964;24.128;2023-05-13T09:23:10;102665.63;;;22.97;45.10
7407;BME280;3745;56.964;24.128;2023-05-13T09:25:36;102669.09;;;22.95;45.45
7407;BME280;3745;56.964;24.128;2023-05-13T09:28:04;102643.34;;;22.84;46.13
7407;BME280;3745;56.964;24.128;2023-05-13T09:30:38;102656.94;;;23.06;45.77
7407;BME280;3745;56.964;24.128;2023-05-13T09:33:16;102651.69;;;23.13;45.29
7407;BME280;3745;56.964;24.128;2023-05-13T09:35:53;102631.25;;;22.89;45.06
7407;BME280;3745;56.964;24.128;2023-05-13T09:38:26;102652.59;;;23.08;45.45
7407;BME280;3745;56.964;24.128;2023-05-13T09:40:59;102626.75;;;23.11;45.14
7407;BME280;3745;56.964;24.128;2023-05-13T09:43:27;102610.53;;;22.95;44.73
7407;BME280;3745;56.964;24.128;2023-05-13T09:45:54;102634.53;;;23.09;43.76
7407;BME280;3745;56.964;24.128;2023-05-13T09:48:25;102626.00;;;22.98;42.16
7407;BME280;3745;56.964;24.128;2023-05-13T09:50:50;102655.97;;;23.17;41.24
7407;BME280;3745;56.964;24.128;2023-05-13T09:53:17;102646.47;;;23.19;40.77
7407;BME280;3745;56.964;24.128;2023-05-13T09:55:45;102657.47;;;23.38;40.00
7407;BME280;3745;56.964;24.128;2023-05-13T09:58:11;102651.56;;;23.29;39.42
7407;BME280;3745;56.964;24.128;2023-05-13T10:00:39;102648.16;;;23.23;39.18
7407;BME280;3745;56.964;24.128;2023-05-13T10:03:06;102648.00;;;23.39;40.01
7407;BME280;3745;56.964;24.128;2023-05-13T10:05:32;102599.81;;;23.35;39.56
7407;BME280;3745;56.964;24.128;2023-05-13T10:07:59;102641.69;;;23.67;38.20
7407;BME280;3745;56.964;24.128;2023-05-13T10:10:27;102643.66;;;23.45;38.20
7407;BME280;3745;56.964;24.128;2023-05-13T10:12:54;102617.88;;;23.39;37.87
7407;BME280;3745;56.964;24.128;2023-05-13T10:15:20;102617.00;;;23.42;37.98
7407;BME280;3745;56.964;24.128;2023-05-13T10:17:47;102634.25;;;23.40;38.21
7407;BME280;3745;56.964;24.128;2023-05-13T10:20:13;102593.03;;;23.25;38.87
7407;BME280;3745;56.964;24.128;2023-05-13T10:22:39;102567.31;;;23.12;39.62
7407;BME280;3745;56.964;24.128;2023-05-13T10:25:05;102621.09;;;23.62;40.96
7407;BME280;3745;56.964;24.128;2023-05-13T10:27:32;102622.97;;;23.45;41.00
7407;BME280;3745;56.964;24.128;2023-05-13T10:30:00;102641.16;;;23.41;41.00
7407;BME280;3745;56.964;24.128;2023-05-13T10:32:28;102603.56;;;23.06;40.69
7407;BME280;3745;56.964;24.128;2023-05-13T10:34:59;102625.91;;;23.07;41.56
7407;BME280;3745;56.964;24.128;2023-05-13T10:38:00;102631.75;;;23.26;40.98
7407;BME280;3745;56.964;24.128;2023-05-13T10:43:19;102637.78;;;23.27;40.19
7407;BME280;3745;56.964;24.128;2023-05-13T10:46:00;102632.50;;;23.39;40.28
7407;BME280;3745;56.964;24.128;2023-05-13T10:48:40;102602.38;;;23.36;39.98
7407;BME280;3745;56.964;24.128;2023-05-13T10:51:14;102627.19;;;23.54;39.98
7407;BME280;3745;56.964;24.128;2023-05-13T10:53:56;102634.09;;;23.55;39.19
7407;BME280;3745;56.964;24.128;2023-05-13T10:56:27;102578.28;;;23.34;38.19
7407;BME280;3745;56.964;24.128;2023-05-13T10:59:00;102630.44;;;23.74;38.44
7407;BME280;3745;56.964;24.128;2023-05-13T11:01:32;102629.13;;;23.34;37.72
7407;BME280;3745;56.964;24.128;2023-05-13T11:04:00;102589.03;;;22.93;37.65
7407;BME280;3745;56.964;24.128;2023-05-13T11:08:58;102643.09;;;23.11;39.02
7407;BME280;3745;56.964;24.128;2023-05-13T11:11:28;102624.94;;;23.22;41.34
7407;BME280;3745;56.964;24.128;2023-05-13T11:14:04;102628.25;;;23.33;41.24
7407;BME280;3745;56.964;24.128;2023-05-13T11:16:32;102624.31;;;22.97;40.79
7407;BME280;3745;56.964;24.128;2023-05-13T11:18:58;102643.25;;;22.96;42.25
7407;BME280;3745;56.964;24.128;2023-05-13T11:21:30;102624.56;;;22.58;41.08
7407;BME280;3745;56.964;24.128;2023-05-13T11:24:02;102648.72;;;22.51;40.69
7407;BME280;3745;56.964;24.128;2023-05-13T11:29:14;102631.66;;;22.29;42.19
7407;BME280;3745;56.964;24.128;2023-05-13T11:31:51;102639.34;;;22.35;41.55
7407;BME280;3745;56.964;24.128;2023-05-13T11:34:18;102626.44;;;22.38;41.92
7407;BME280;3745;56.964;24.128;2023-05-13T11:36:50;102631.41;;;22.62;42.14
7407;BME280;3745;56.964;24.128;2023-05-13T11:39:20;102634.75;;;22.85;41.10
7407;BME280;3745;56.964;24.128;2023-05-13T11:41:50;102608.94;;;22.82;41.01
7407;BME280;3745;56.964;24.128;2023-05-13T11:44:20;102633.13;;;22.69;38.92
7407;BME280;3745;56.964;24.128;2023-05-13T11:46:57;102617.75;;;22.51;38.82
7407;BME280;3745;56.964;24.128;2023-05-13T11:52:42;102586.97;;;22.21;39.09
7407;BME280;3745;56.964;24.128;2023-05-13T11:54:51;102626.44;;;22.38;40.11
7407;BME280;3745;56.964;24.128;2023-05-13T11:57:28;102619.56;;;22.31;38.66
7407;BME280;3745;56.964;24.128;2023-05-13T12:00:01;102617.97;;;22.18;38.07
7407;BME280;3745;56.964;24.128;2023-05-13T12:02:34;102602.56;;;22.05;38.78
7407;BME280;3745;56.964;24.128;2023-05-13T12:05:03;102613.69;;;22.10;38.98
7407;BME280;3745;56.964;24.128;2023-05-13T12:07:30;102588.06;;;21.68;37.93
7407;BME280;3745;56.964;24.128;2023-05-13T12:09:57;102582.03;;;21.69;39.30
7407;BME280;3745;56.964;24.128;2023-05-13T12:12:24;102611.19;;;21.86;38.60
7407;BME280;3745;56.964;24.128;2023-05-13T12:14:51;102612.91;;;21.93;38.55
7407;BME280;3745;56.964;24.128;2023-05-13T12:17:19;102616.31;;;22.01;39.27
7407;BME280;3745;56.964;24.128;2023-05-13T12:20:11;102615.44;;;22.05;38.90
7407;BME280;3745;56.964;24.128;2023-05-13T12:23:00;102448.28;;;21.05;39.17
7407;BME280;3745;56.964;24.128;2023-05-13T12:25:42;102606.00;;;22.01;38.24
7407;BME280;3745;56.964;24.128;2023-05-13T12:28:27;102600.91;;;21.89;38.57
7407;BME280;3745;56.964;24.128;2023-05-13T12:33:30;102602.59;;;21.99;37.86
7407;BME280;3745;56.964;24.128;2023-05-13T12:36:18;102605.09;;;22.07;37.99
7407;BME280;3745;56.964;24.128;2023-05-13T12:38:59;102610.25;;;22.10;37.87
7407;BME280;3745;56.964;24.128;2023-05-13T12:44:18;102617.22;;;21.96;37.89
7407;BME280;3745;56.964;24.128;2023-05-13T12:46:51;102593.19;;;21.76;38.27
7407;BME280;3745;56.964;24.128;2023-05-13T12:49:17;102608.63;;;21.86;38.19
7407;BME280;3745;56.964;24.128;2023-05-13T12:51:43;102611.22;;;21.80;38.31
7407;BME280;3745;56.964;24.128;2023-05-13T12:54:11;102582.94;;;21.57;38.26
7407;BME280;3745;56.964;24.128;2023-05-13T12:56:37;102602.63;;;21.75;38.58
7407;BME280;3745;56.964;24.128;2023-05-13T12:59:06;102600.94;;;21.77;38.77
7407;BME280;3745;56.964;24.128;2023-05-13T13:01:33;102586.28;;;21.82;38.47
7407;BME280;3745;56.964;24.128;2023-05-13T13:03:59;102561.41;;;21.72;38.73
7407;BME280;3745;56.964;24.128;2023-05-13T13:06:27;102551.09;;;21.72;38.79
7407;BME280;3745;56.964;24.128;2023-05-13T13:08:53;102595.69;;;22.01;39.62
7407;BME280;3745;56.964;24.128;2023-05-13T13:11:19;102599.13;;;22.00;39.46
7407;BME280;3745;56.964;24.128;2023-05-13T13:13:46;102602.59;;;21.96;39.64
7407;BME280;3745;56.964;24.128;2023-05-13T13:16:15;102604.25;;;22.03;40.40